createdAt,value
2019-03-27T00:01:47.083Z,100270.87
2019-03-27T00:04:19.419Z,100279.12
2019-03-27T00:06:51.762Z,100282.60
2019-03-27T00:09:24.297Z,100278.95
2019-03-27T00:11:56.737Z,100281.19
2019-03-27T00:14:29.274Z,100281.19
2019-03-27T00:17:01.765Z,100276.05
2019-03-27T00:19:34.295Z,100276.05
2019-03-27T00:22:06.874Z,100267.37
2019-03-27T00:24:39.298Z,100267.37
2019-03-27T00:27:11.636Z,100277.72
2019-03-27T00:29:44.291Z,100277.72
2019-03-27T00:32:16.605Z,100267.06
2019-03-27T00:34:48.878Z,100267.06
2019-03-27T00:37:22.090Z,100271.36
2019-03-27T00:39:54.569Z,100270.23
2019-03-27T00:42:27.190Z,100272.55
2019-03-27T00:44:59.513Z,100273.16
2019-03-27T00:47:31.777Z,100271.41
2019-03-27T00:50:04.505Z,100272.03
2019-03-27T00:52:36.232Z,100277.94
2019-03-27T00:55:10.382Z,100275.80
2019-03-27T00:57:42.671Z,100267.37
2019-03-27T01:00:48.862Z,100262.24
2019-03-27T01:03:21.317Z,100259.80
2019-03-27T01:05:53.231Z,100263.25
2019-03-27T01:08:25.439Z,100261.77
2019-03-27T01:10:57.111Z,100263.73
2019-03-27T01:13:29.545Z,100268.00
2019-03-27T01:16:02.305Z,100264.95
2019-03-27T01:18:34.804Z,100259.20
2019-03-27T01:21:07.532Z,100259.20
2019-03-27T01:23:39.975Z,100262.37
2019-03-27T01:26:12.386Z,100265.00
2019-03-27T01:28:44.759Z,100259.78
2019-03-27T01:31:17.334Z,100259.78
2019-03-27T01:33:49.765Z,100263.67
2019-03-27T01:36:23.459Z,100263.67
2019-03-27T01:38:55.059Z,100262.62
2019-03-27T01:41:27.730Z,100258.36
2019-03-27T01:44:00.216Z,100256.73
2019-03-27T01:46:32.557Z,100254.81
2019-03-27T01:49:04.908Z,100247.05
2019-03-27T01:51:37.350Z,100248.36
2019-03-27T01:54:09.778Z,100248.85
2019-03-27T01:56:42.452Z,100248.85
2019-03-27T01:59:14.006Z,100247.53
2019-03-27T02:01:48.154Z,100250.17
2019-03-27T02:04:21.637Z,100248.14
2019-03-27T02:06:54.294Z,100252.80
2019-03-27T02:09:26.796Z,100241.08
2019-03-27T02:11:59.343Z,100241.08
2019-03-27T02:14:32.051Z,100254.59
2019-03-27T02:17:04.746Z,100254.59
2019-03-27T02:19:37.324Z,100246.03
2019-03-27T02:22:13.305Z,100249.77
2019-03-27T02:24:45.753Z,100244.37
2019-03-27T02:27:18.400Z,100244.37
2019-03-27T02:29:50.881Z,100243.30
2019-03-27T02:32:23.300Z,100243.30
2019-03-27T02:34:55.575Z,100232.37
2019-03-27T02:37:28.299Z,100232.37
2019-03-27T02:40:00.607Z,100215.05
2019-03-27T02:42:33.043Z,100215.05
2019-03-27T02:45:06.746Z,100245.58
2019-03-27T02:47:39.295Z,100240.48
2019-03-27T02:50:11.846Z,100245.23
2019-03-27T02:52:44.295Z,100245.23
2019-03-27T02:55:16.730Z,100225.08
2019-03-27T02:57:49.378Z,100225.08
2019-03-27T03:00:22.408Z,100230.81
2019-03-27T03:02:54.750Z,100230.81
2019-03-27T03:05:27.292Z,100259.16
2019-03-27T03:07:59.653Z,100255.39
2019-03-27T03:10:32.278Z,100255.39
2019-03-27T03:13:04.763Z,100262.36
2019-03-27T03:15:37.300Z,100254.00
2019-03-27T03:18:09.771Z,100256.94
2019-03-27T03:20:42.317Z,100256.94
2019-03-27T03:23:14.614Z,100249.70
2019-03-27T03:25:47.015Z,100249.70
2019-03-27T03:28:19.362Z,100248.20
2019-03-27T03:30:51.841Z,100238.28
2019-03-27T03:33:24.431Z,100238.28
2019-03-27T03:35:56.892Z,100252.27
2019-03-27T03:38:29.461Z,100247.74
2019-03-27T03:41:02.310Z,100246.61
2019-03-27T03:43:34.639Z,100255.75
2019-03-27T03:46:07.287Z,100255.75
2019-03-27T03:48:39.252Z,100257.71
2019-03-27T03:51:11.680Z,100258.48
2019-03-27T03:53:44.308Z,100257.69
2019-03-27T03:56:18.766Z,100219.20
2019-03-27T03:58:52.352Z,100219.20
2019-03-27T04:01:28.573Z,100254.53
2019-03-27T04:04:02.818Z,100254.53
2019-03-27T04:06:35.295Z,100258.66
2019-03-27T04:09:09.435Z,100259.42
2019-03-27T04:11:41.263Z,100259.42
2019-03-27T04:14:13.739Z,100261.64
2019-03-27T04:16:46.301Z,100262.84
2019-03-27T04:19:18.689Z,100265.48
2019-03-27T04:21:52.045Z,100265.48
2019-03-27T04:24:29.890Z,100271.08
2019-03-27T04:27:02.693Z,100269.72
2019-03-27T04:29:35.106Z,100273.52
2019-03-27T04:32:07.522Z,100269.66
2019-03-27T04:34:39.807Z,100264.86
2019-03-27T04:37:12.289Z,100267.37
2019-03-27T04:39:44.254Z,100266.66
2019-03-27T04:42:16.362Z,100262.05
2019-03-27T04:44:48.302Z,100259.55
2019-03-27T04:47:31.973Z,100268.16
2019-03-27T04:49:55.294Z,100265.34
2019-03-27T04:52:32.292Z,100244.84
2019-03-27T04:55:06.292Z,100268.97
2019-03-27T04:57:38.686Z,100244.49
2019-03-27T05:00:12.482Z,100244.49
2019-03-27T05:02:44.260Z,100266.64
2019-03-27T05:05:17.324Z,100268.11
2019-03-27T05:07:49.659Z,100258.01
2019-03-27T05:10:23.038Z,100258.01
2019-03-27T05:12:55.373Z,100281.36
2019-03-27T05:15:27.826Z,100279.75
2019-03-27T05:18:00.353Z,100279.75
2019-03-27T05:20:32.976Z,100289.27
2019-03-27T05:23:05.462Z,100290.38
2019-03-27T05:25:37.064Z,100293.05
2019-03-27T05:28:09.382Z,100298.69
2019-03-27T05:30:41.832Z,100302.89
2019-03-27T05:33:14.290Z,100302.89
2019-03-27T05:35:46.654Z,100302.87
2019-03-27T05:38:19.277Z,100302.87
2019-03-27T05:40:54.511Z,100303.46
2019-03-27T05:43:26.825Z,100303.00
2019-03-27T05:45:59.295Z,100306.83
2019-03-27T05:48:34.300Z,100293.31
2019-03-27T05:51:06.662Z,100301.15
2019-03-27T05:53:39.273Z,100301.15
2019-03-27T05:56:11.546Z,100323.20
2019-03-27T05:58:44.013Z,100328.84
2019-03-27T06:01:16.367Z,100328.06
2019-03-27T06:03:48.728Z,100333.21
2019-03-27T06:06:21.311Z,100333.21
2019-03-27T06:08:56.193Z,100333.93
2019-03-27T06:11:28.650Z,100327.23
2019-03-27T06:14:01.293Z,100332.73
2019-03-27T06:16:33.871Z,100317.06
2019-03-27T06:19:06.378Z,100317.06
2019-03-27T06:21:38.874Z,100339.61
2019-03-27T06:24:11.299Z,100333.70
2019-03-27T06:26:43.604Z,100325.84
2019-03-27T06:29:16.128Z,100325.84
2019-03-27T06:31:48.566Z,100335.07
2019-03-27T06:34:21.290Z,100334.02
2019-03-27T06:36:53.651Z,100310.14
2019-03-27T06:39:27.608Z,100337.02
2019-03-27T06:42:04.362Z,100337.02
2019-03-27T06:44:36.713Z,100336.89
2019-03-27T06:47:09.291Z,100336.89
2019-03-27T06:49:41.655Z,100320.77
2019-03-27T06:52:14.265Z,100320.77
2019-03-27T06:54:46.554Z,100343.81
2019-03-27T06:57:18.870Z,100339.12
2019-03-27T06:59:51.301Z,100337.40
2019-03-27T07:02:23.275Z,100344.33
2019-03-27T07:04:55.271Z,100345.37
2019-03-27T07:07:27.623Z,100317.70
2019-03-27T07:10:00.406Z,100317.70
2019-03-27T07:12:32.421Z,100356.84
2019-03-27T07:15:05.614Z,100355.92
2019-03-27T07:17:38.264Z,100355.92
2019-03-27T07:20:11.832Z,100365.50
2019-03-27T07:22:44.293Z,100362.43
2019-03-27T07:25:17.025Z,100372.11
2019-03-27T07:27:49.530Z,100372.11
2019-03-27T07:30:22.284Z,100362.12
2019-03-27T07:32:54.686Z,100336.41
2019-03-27T07:35:27.311Z,100336.41
2019-03-27T07:38:02.808Z,100368.19
2019-03-27T07:40:35.295Z,100368.19
2019-03-27T07:43:07.753Z,100346.15
2019-03-27T07:45:40.267Z,100346.15
2019-03-27T07:48:12.625Z,100359.84
2019-03-27T07:50:45.259Z,100359.84
2019-03-27T07:53:22.214Z,100381.38
2019-03-27T07:55:53.286Z,100375.06
2019-03-27T07:58:25.673Z,100387.38
2019-03-27T08:00:59.604Z,100387.38
2019-03-27T08:03:32.190Z,100391.20
2019-03-27T08:06:07.830Z,100384.14
2019-03-27T08:08:40.309Z,100389.23
2019-03-27T08:11:12.766Z,100391.06
2019-03-27T08:13:45.580Z,100391.06
2019-03-27T08:16:18.288Z,100400.47
2019-03-27T08:18:50.751Z,100389.05
2019-03-27T08:21:23.281Z,100389.05
2019-03-27T08:23:55.755Z,100359.81
2019-03-27T08:26:28.290Z,100359.81
2019-03-27T08:29:00.601Z,100392.12
2019-03-27T08:31:33.300Z,100392.12
2019-03-27T08:34:06.126Z,100393.41
2019-03-27T08:36:38.650Z,100393.41
2019-03-27T08:39:11.358Z,100399.41
2019-03-27T08:41:43.427Z,100395.73
2019-03-27T08:44:15.039Z,100388.02
2019-03-27T08:46:47.382Z,100391.26
2019-03-27T08:49:22.199Z,100387.56
2019-03-27T08:51:53.019Z,100387.56
2019-03-27T08:54:25.724Z,100395.16
2019-03-27T08:56:58.302Z,100398.30
2019-03-27T08:59:30.646Z,100393.18
2019-03-27T09:02:04.308Z,100393.18
2019-03-27T09:04:36.794Z,100400.84
2019-03-27T09:07:11.659Z,100400.84
2019-03-27T09:09:44.278Z,100397.60
2019-03-27T09:12:16.638Z,100402.47
2019-03-27T09:14:49.345Z,100402.47
2019-03-27T09:17:21.219Z,100405.95
2019-03-27T09:19:54.556Z,100397.27
2019-03-27T09:22:29.810Z,100403.24
2019-03-27T09:25:43.097Z,100411.72
2019-03-27T09:28:15.772Z,100411.78
2019-03-27T09:30:49.850Z,100405.73
2019-03-27T09:33:22.326Z,100405.73
2019-03-27T09:35:56.604Z,100393.80
2019-03-27T09:38:29.289Z,100393.80
2019-03-27T09:41:01.602Z,100417.02
2019-03-27T09:43:33.891Z,100410.50
2019-03-27T09:46:06.509Z,100408.44
2019-03-27T09:48:38.231Z,100411.58
2019-03-27T09:51:10.814Z,100400.43
2019-03-27T09:53:43.306Z,100403.15
2019-03-27T09:56:19.475Z,100401.03
2019-03-27T09:58:50.293Z,100401.03
2019-03-27T10:01:22.613Z,100401.65
2019-03-27T10:03:54.991Z,100401.65
2019-03-27T10:06:27.302Z,100396.97
2019-03-27T10:08:59.777Z,100394.17
2019-03-27T10:11:32.311Z,100394.17
2019-03-27T10:14:04.753Z,100376.45
2019-03-27T10:16:40.289Z,100376.45
2019-03-27T10:19:13.021Z,100396.84
2019-03-27T10:21:46.882Z,100396.84
2019-03-27T10:24:19.360Z,100390.20
2019-03-27T10:26:51.785Z,100389.38
2019-03-27T10:29:24.294Z,100389.38
2019-03-27T10:31:56.993Z,100358.83
2019-03-27T10:34:29.493Z,100358.83
2019-03-27T10:37:01.336Z,100394.13
2019-03-27T10:39:33.743Z,100383.05
2019-03-27T10:42:06.303Z,100383.05
2019-03-27T10:44:40.414Z,100385.61
2019-03-27T10:47:12.784Z,100391.30
2019-03-27T10:49:45.321Z,100378.34
2019-03-27T10:52:17.682Z,100389.28
2019-03-27T10:54:50.322Z,100389.28
2019-03-27T10:57:22.891Z,100385.63
2019-03-27T10:59:55.436Z,100385.63
2019-03-27T11:02:27.096Z,100393.56
2019-03-27T11:04:59.647Z,100393.23
2019-03-27T11:07:32.288Z,100392.61
2019-03-27T11:10:08.406Z,100376.91
2019-03-27T11:12:41.226Z,100379.77
2019-03-27T11:15:14.692Z,100379.77
2019-03-27T11:17:47.313Z,100384.12
2019-03-27T11:20:30.353Z,100364.09
2019-03-27T11:22:54.512Z,100364.09
2019-03-27T11:25:27.328Z,100386.71
2019-03-27T11:27:59.847Z,100377.72
2019-03-27T11:30:39.826Z,100377.72
2019-03-27T11:33:12.451Z,100381.72
2019-03-27T11:35:44.296Z,100370.66
2019-03-27T11:38:16.554Z,100370.66
2019-03-27T11:40:48.911Z,100375.48
2019-03-27T11:43:28.130Z,100371.25
2019-03-27T11:46:00.705Z,100370.66
2019-03-27T11:48:33.299Z,100367.31
2019-03-27T11:51:06.262Z,100364.33
2019-03-27T11:53:38.869Z,100371.61
2019-03-27T11:56:11.521Z,100361.36
2019-03-27T11:58:44.054Z,100363.68
2019-03-27T12:01:16.641Z,100363.25
2019-03-27T12:03:49.307Z,100362.20
2019-03-27T12:06:21.888Z,100363.30
2019-03-27T12:08:54.431Z,100363.30
2019-03-27T12:11:26.106Z,100362.94
2019-03-27T12:13:58.459Z,100370.44
2019-03-27T12:16:30.290Z,100363.27
2019-03-27T12:19:02.515Z,100357.00
2019-03-27T12:21:35.061Z,100357.97
2019-03-27T12:24:07.668Z,100352.72
2019-03-27T12:26:41.905Z,100347.91
2019-03-27T12:29:18.146Z,100351.38
2019-03-27T12:31:50.368Z,100351.41
2019-03-27T12:34:22.768Z,100346.07
2019-03-27T12:36:55.752Z,100346.07
2019-03-27T12:39:28.657Z,100352.58
2019-03-27T12:42:01.432Z,100346.73
2019-03-27T12:44:33.987Z,100355.58
2019-03-27T12:47:08.428Z,100355.03
2019-03-27T12:49:41.482Z,100354.56
2019-03-27T12:52:17.315Z,100352.50
2019-03-27T12:54:49.269Z,100342.22
2019-03-27T12:57:21.828Z,100350.23
2019-03-27T12:59:54.717Z,100348.19
2019-03-27T13:02:27.524Z,100343.30
2019-03-27T13:05:02.719Z,100348.64
2019-03-27T13:07:49.081Z,100341.52
2019-03-27T13:10:10.579Z,100341.58
2019-03-27T13:12:43.357Z,100339.15
2019-03-27T13:15:16.071Z,100324.64
2019-03-27T13:17:48.594Z,100324.64
2019-03-27T13:20:21.500Z,100346.80
2019-03-27T13:22:54.308Z,100334.15
2019-03-27T13:25:27.003Z,100327.00
2019-03-27T13:27:59.542Z,100327.00
2019-03-27T13:30:32.406Z,100335.91
2019-03-27T13:33:04.360Z,100332.89
2019-03-27T13:35:36.760Z,100336.48
2019-03-27T13:38:10.391Z,100336.48
2019-03-27T13:40:42.231Z,100332.83
2019-03-27T13:43:14.666Z,100327.30
2019-03-27T13:45:47.308Z,100331.11
2019-03-27T13:48:22.999Z,100328.08
2019-03-27T13:50:57.332Z,100328.08
2019-03-27T13:53:31.439Z,100333.17
2019-03-27T13:56:04.170Z,100328.48
2019-03-27T13:58:36.633Z,100335.23
2019-03-27T14:01:12.816Z,100325.73
2019-03-27T14:03:43.489Z,100327.48
2019-03-27T14:06:16.334Z,100331.19
2019-03-27T14:08:50.065Z,100282.25
2019-03-27T14:11:23.184Z,100307.55
2019-03-27T14:13:55.902Z,100307.55
2019-03-27T14:16:31.442Z,100322.95
2019-03-27T14:19:03.274Z,100321.42
2019-03-27T14:21:35.321Z,100318.63
2019-03-27T14:24:07.995Z,100309.61
2019-03-27T14:26:45.510Z,100309.61
2019-03-27T14:29:16.411Z,100310.76
2019-03-27T14:31:49.278Z,100310.92
2019-03-27T14:34:21.716Z,100304.56
2019-03-27T14:36:56.288Z,100304.56
2019-03-27T14:39:29.296Z,100313.01
2019-03-27T14:42:02.880Z,100306.55
2019-03-27T14:44:37.493Z,100306.55
2019-03-27T14:47:10.414Z,100310.52
2019-03-27T14:49:42.352Z,100312.77
2019-03-27T14:52:15.286Z,100305.92
2019-03-27T14:54:47.850Z,100315.13
2019-03-27T14:57:23.420Z,100315.13
2019-03-27T14:59:56.305Z,100314.23
2019-03-27T15:02:30.718Z,100318.83
2019-03-27T15:05:03.551Z,100321.77
2019-03-27T15:07:36.354Z,100315.33
2019-03-27T15:10:12.786Z,100315.41
2019-03-27T15:12:47.935Z,100312.79
2019-03-27T15:15:20.551Z,100320.46
2019-03-27T15:17:53.366Z,100317.58
2019-03-27T15:20:26.316Z,100314.53
2019-03-27T15:23:01.233Z,100318.54
2019-03-27T15:25:33.959Z,100319.38
2019-03-27T15:28:08.712Z,100317.61
2019-03-27T15:30:43.580Z,100313.91
2019-03-27T15:33:22.327Z,100320.52
2019-03-27T15:36:06.015Z,100314.58
2019-03-27T15:38:39.158Z,100314.58
2019-03-27T15:41:13.499Z,100315.84
2019-03-27T15:43:46.385Z,100320.00
2019-03-27T15:46:18.514Z,100317.26
2019-03-27T15:48:50.139Z,100314.06
2019-03-27T15:51:22.640Z,100309.78
2019-03-27T15:53:55.357Z,100314.76
2019-03-27T15:56:27.258Z,100312.86
2019-03-27T15:59:02.616Z,100312.86
2019-03-27T16:01:45.761Z,100314.16
2019-03-27T16:04:20.255Z,100312.06
2019-03-27T16:06:53.480Z,100275.91
2019-03-27T16:09:30.369Z,100275.91
2019-03-27T16:12:02.488Z,100313.05
2019-03-27T16:14:38.581Z,100314.99
2019-03-27T16:17:13.743Z,100314.70
2019-03-27T16:19:45.280Z,100311.05
2019-03-27T16:22:27.532Z,100314.42
2019-03-27T16:25:03.934Z,100318.75
2019-03-27T16:27:39.306Z,100316.70
2019-03-27T16:30:17.021Z,100316.58
2019-03-27T16:32:48.328Z,100313.47
2019-03-27T16:35:20.504Z,100315.91
2019-03-27T16:37:52.240Z,100315.61
2019-03-27T16:40:49.390Z,100319.77
2019-03-27T16:43:21.235Z,100313.62
2019-03-27T16:45:54.078Z,100326.55
2019-03-27T16:48:26.718Z,100326.55
2019-03-27T16:51:02.550Z,100326.73
2019-03-27T16:53:35.404Z,100327.08
2019-03-27T16:56:07.297Z,100326.13
2019-03-27T16:58:44.460Z,100326.71
2019-03-27T17:01:19.790Z,100326.00
2019-03-27T17:03:57.555Z,100327.78
2019-03-27T17:06:35.829Z,100329.80
2019-03-27T17:09:10.313Z,100337.15
2019-03-27T17:11:43.345Z,100333.66
2019-03-27T17:14:18.403Z,100336.69
2019-03-27T17:16:52.773Z,100339.72
2019-03-27T17:19:27.930Z,100339.72
2019-03-27T17:22:01.531Z,100334.19
2019-03-27T17:24:38.798Z,100334.19
2019-03-27T17:27:11.688Z,100352.57
2019-03-27T17:29:47.257Z,100354.14
2019-03-27T17:32:20.671Z,100361.71
2019-03-27T17:34:56.616Z,100341.70
2019-03-27T17:37:33.870Z,100341.70
2019-03-27T17:40:10.321Z,100358.94
2019-03-27T17:42:50.523Z,100340.70
2019-03-27T17:45:26.364Z,100340.70
2019-03-27T17:48:01.235Z,100362.22
2019-03-27T17:50:38.757Z,100347.84
2019-03-27T17:53:14.242Z,100347.84
2019-03-27T17:56:22.421Z,100367.01
2019-03-27T17:58:56.613Z,100370.59
2019-03-27T18:01:33.370Z,100372.48
2019-03-27T18:04:06.722Z,100371.77
2019-03-27T18:06:42.320Z,100376.94
2019-03-27T18:09:16.394Z,100375.77
2019-03-27T18:11:49.135Z,100378.83
2019-03-27T18:14:23.645Z,100359.30
2019-03-27T18:16:56.364Z,100359.30
2019-03-27T18:19:33.726Z,100380.97
2019-03-27T18:22:07.962Z,100392.74
2019-03-27T18:24:43.512Z,100387.95
2019-03-27T18:27:16.372Z,100396.14
2019-03-27T18:29:48.110Z,100396.83
2019-03-27T18:32:21.428Z,100363.22
2019-03-27T18:34:55.334Z,100363.22
2019-03-27T18:37:30.034Z,100408.78
2019-03-27T18:40:06.364Z,100409.47
2019-03-27T18:42:41.410Z,100410.64
2019-03-27T18:45:16.969Z,100412.95
2019-03-27T18:47:51.444Z,100426.48
2019-03-27T18:50:25.432Z,100429.47
2019-03-27T18:52:59.472Z,100429.47
2019-03-27T18:57:58.995Z,100432.27
2019-03-27T19:00:21.183Z,100437.41
2019-03-27T19:02:55.430Z,100438.58
2019-03-27T19:05:35.649Z,100441.56
2019-03-27T19:08:11.480Z,100445.91
2019-03-27T19:10:44.303Z,100451.51
2019-03-27T19:13:17.359Z,100429.75
2019-03-27T19:15:50.349Z,100429.75
2019-03-27T19:18:25.315Z,100444.83
2019-03-27T19:20:57.551Z,100444.67
2019-03-27T19:23:30.360Z,100447.84
2019-03-27T19:26:03.168Z,100447.36
2019-03-27T19:28:35.792Z,100455.44
2019-03-27T19:31:08.420Z,100452.80
2019-03-27T19:33:40.249Z,100449.64
2019-03-27T19:36:13.104Z,100455.08
2019-03-27T19:38:45.461Z,100451.44
2019-03-27T19:41:19.273Z,100462.47
2019-03-27T19:43:51.844Z,100464.59
2019-03-27T19:46:24.512Z,100464.59
2019-03-27T19:48:56.262Z,100461.98
2019-03-27T19:51:29.760Z,100467.55
2019-03-27T19:54:02.379Z,100458.64
2019-03-27T19:56:34.846Z,100458.95
2019-03-27T19:59:10.417Z,100458.95
2019-03-27T20:01:43.087Z,100464.88
2019-03-27T20:04:16.389Z,100466.83
2019-03-27T20:07:19.359Z,100463.36
2019-03-27T20:10:33.699Z,100468.68
2019-03-27T20:13:23.410Z,100472.56
2019-03-27T20:16:22.562Z,100476.17
2019-03-27T20:19:17.023Z,100477.45
2019-03-27T20:21:55.394Z,100478.55
2019-03-27T20:25:09.799Z,100481.78
2019-03-27T20:27:38.303Z,100481.32
2019-03-27T20:30:17.305Z,100481.21
2019-03-27T20:32:50.131Z,100484.22
2019-03-27T20:35:23.127Z,100463.70
2019-03-27T20:37:56.011Z,100479.02
2019-03-27T20:40:28.487Z,100479.02
2019-03-27T20:43:03.373Z,100475.59
2019-03-27T20:45:38.463Z,100479.48
2019-03-27T20:48:12.471Z,100479.08
2019-03-27T20:51:01.439Z,100481.05
2019-03-27T20:53:48.068Z,100483.78
2019-03-27T20:56:21.317Z,100482.33
2019-03-27T20:58:53.350Z,100478.00
2019-03-27T21:01:26.308Z,100482.91
2019-03-27T21:04:00.927Z,100482.91
2019-03-27T21:06:33.822Z,100484.36
2019-03-27T21:09:08.052Z,100488.11
2019-03-27T21:12:00.804Z,100495.36
2019-03-27T21:14:34.276Z,100491.03
2019-03-27T21:17:08.819Z,100490.40
2019-03-27T21:19:42.744Z,100490.40
2019-03-27T21:22:17.438Z,100504.03
2019-03-27T21:24:50.998Z,100497.61
2019-03-27T21:27:25.402Z,100496.33
2019-03-27T21:30:36.961Z,100493.01
2019-03-27T22:11:52.013Z,100501.78
2019-03-27T22:14:27.332Z,100513.18
2019-03-27T22:17:06.294Z,100512.26
2019-03-27T22:19:43.798Z,100508.34
2019-03-27T22:22:26.232Z,100506.19
2019-03-27T22:25:05.365Z,100499.69
2019-03-27T22:27:48.380Z,100507.13
2019-03-27T22:33:53.670Z,100508.08
2019-03-27T22:44:01.885Z,100512.73
2019-03-27T22:46:49.733Z,100516.61
2019-03-27T22:49:31.541Z,100518.11
2019-03-27T22:55:27.321Z,100522.56
2019-03-27T23:00:52.547Z,100518.48
2019-03-27T23:03:25.425Z,100511.08
2019-03-27T23:05:57.808Z,100519.40
2019-03-27T23:08:30.328Z,100519.40
2019-03-27T23:11:02.900Z,100526.16
2019-03-27T23:13:35.312Z,100519.55
2019-03-27T23:16:10.260Z,100526.06
2019-03-27T23:18:42.250Z,100517.30
2019-03-27T23:21:14.595Z,100526.52
2019-03-27T23:23:47.322Z,100529.33
2019-03-27T23:26:19.637Z,100523.35
2019-03-27T23:28:52.133Z,100523.35
2019-03-27T23:31:24.444Z,100521.68
2019-03-27T23:33:56.756Z,100518.50
2019-03-27T23:36:29.349Z,100522.19
2019-03-27T23:39:01.304Z,100526.97
2019-03-27T23:41:35.028Z,100508.53
2019-03-27T23:44:07.494Z,100508.53
2019-03-27T23:46:39.870Z,100525.88
2019-03-27T23:49:12.342Z,100520.41
2019-03-27T23:51:44.816Z,100493.89
2019-03-27T23:54:17.306Z,100493.89
2019-03-27T23:56:49.620Z,100520.47
2019-03-27T23:59:22.056Z,100520.47
